sensor_id;sensor_type;location;lat;lon;timestamp;P1;durP1;ratioP1;P2;durP2;ratioP2
68484;SDS011;55472;50.060;21.960;2023-07-16T00:00:10;9.05;;;4.75;;
68484;SDS011;55472;50.060;21.960;2023-07-16T00:02:56;7.47;;;4.60;;
68484;SDS011;55472;50.060;21.960;2023-07-16T00:05:23;7.72;;;4.70;;
68484;SDS011;55472;50.060;21.960;2023-07-16T00:07:49;6.80;;;4.55;;
68484;SDS011;55472;50.060;21.960;2023-07-16T00:10:15;8.13;;;4.80;;
68484;SDS011;55472;50.060;21.960;2023-07-16T00:12:41;6.93;;;4.93;;
68484;SDS011;55472;50.060;21.960;2023-07-16T00:15:07;7.30;;;4.83;;
68484;SDS011;55472;50.060;21.960;2023-07-16T00:17:34;8.00;;;5.07;;
68484;SDS011;55472;50.060;21.960;2023-07-16T00:20:00;6.93;;;4.65;;
68484;SDS011;55472;50.060;21.960;2023-07-16T00:22:26;8.68;;;4.47;;
68484;SDS011;55472;50.060;21.960;2023-07-16T00:24:52;7.22;;;4.65;;
68484;SDS011;55472;50.060;21.960;2023-07-16T00:27:18;8.63;;;4.90;;
68484;SDS011;55472;50.060;21.960;2023-07-16T00:29:44;7.97;;;5.05;;
68484;SDS011;55472;50.060;21.960;2023-07-16T00:32:11;6.88;;;4.75;;
68484;SDS011;55472;50.060;21.960;2023-07-16T00:34:37;8.57;;;5.07;;
68484;SDS011;55472;50.060;21.960;2023-07-16T00:37:04;6.80;;;4.90;;
68484;SDS011;55472;50.060;21.960;2023-07-16T00:39:30;7.20;;;5.00;;
68484;SDS011;55472;50.060;21.960;2023-07-16T00:41:56;7.35;;;4.80;;
68484;SDS011;55472;50.060;21.960;2023-07-16T00:44:23;9.48;;;4.68;;
68484;SDS011;55472;50.060;21.960;2023-07-16T00:46:49;6.90;;;4.60;;
68484;SDS011;55472;50.060;21.960;2023-07-16T00:49:16;7.30;;;4.70;;
68484;SDS011;55472;50.060;21.960;2023-07-16T00:51:42;7.32;;;4.55;;
68484;SDS011;55472;50.060;21.960;2023-07-16T00:54:08;7.20;;;4.60;;
68484;SDS011;55472;50.060;21.960;2023-07-16T00:56:34;6.68;;;4.75;;
68484;SDS011;55472;50.060;21.960;2023-07-16T00:59:03;7.70;;;4.78;;
68484;SDS011;55472;50.060;21.960;2023-07-16T01:01:29;8.03;;;4.57;;
68484;SDS011;55472;50.060;21.960;2023-07-16T01:03:55;8.13;;;4.97;;
68484;SDS011;55472;50.060;21.960;2023-07-16T01:06:43;7.10;;;4.78;;
68484;SDS011;55472;50.060;21.960;2023-07-16T01:09:16;6.55;;;4.57;;
68484;SDS011;55472;50.060;21.960;2023-07-16T01:11:45;8.25;;;4.70;;
68484;SDS011;55472;50.060;21.960;2023-07-16T01:14:13;8.67;;;4.33;;
68484;SDS011;55472;50.060;21.960;2023-07-16T01:16:42;6.40;;;4.32;;
68484;SDS011;55472;50.060;21.960;2023-07-16T01:19:09;7.45;;;4.70;;
68484;SDS011;55472;50.060;21.960;2023-07-16T01:21:47;7.63;;;4.85;;
68484;SDS011;55472;50.060;21.960;2023-07-16T01:31:03;7.93;;;4.80;;
68484;SDS011;55472;50.060;21.960;2023-07-16T01:33:29;6.60;;;4.30;;
68484;SDS011;55472;50.060;21.960;2023-07-16T01:35:57;7.97;;;4.55;;
68484;SDS011;55472;50.060;21.960;2023-07-16T01:38:25;7.07;;;4.38;;
68484;SDS011;55472;50.060;21.960;2023-07-16T01:40:51;8.60;;;4.63;;
68484;SDS011;55472;50.060;21.960;2023-07-16T01:43:17;7.13;;;4.68;;
68484;SDS011;55472;50.060;21.960;2023-07-16T01:45:43;6.82;;;4.38;;
68484;SDS011;55472;50.060;21.960;2023-07-16T01:48:13;6.88;;;4.40;;
68484;SDS011;55472;50.060;21.960;2023-07-16T01:50:49;7.25;;;4.15;;
68484;SDS011;55472;50.060;21.960;2023-07-16T01:53:15;6.00;;;4.33;;
68484;SDS011;55472;50.060;21.960;2023-07-16T01:55:41;7.97;;;4.63;;
68484;SDS011;55472;50.060;21.960;2023-07-16T01:58:07;8.38;;;4.45;;
68484;SDS011;55472;50.060;21.960;2023-07-16T02:00:35;8.15;;;4.40;;
68484;SDS011;55472;50.060;21.960;2023-07-16T02:03:02;6.67;;;3.90;;
68484;SDS011;55472;50.060;21.960;2023-07-16T02:05:28;8.70;;;4.30;;
68484;SDS011;55472;50.060;21.960;2023-07-16T02:07:54;7.50;;;3.92;;
68484;SDS011;55472;50.060;21.960;2023-07-16T02:10:20;7.53;;;4.20;;
68484;SDS011;55472;50.060;21.960;2023-07-16T02:12:46;6.63;;;3.95;;
68484;SDS011;55472;50.060;21.960;2023-07-16T02:15:13;10.60;;;4.37;;
68484;SDS011;55472;50.060;21.960;2023-07-16T02:17:39;5.90;;;4.00;;
68484;SDS011;55472;50.060;21.960;2023-07-16T02:20:05;8.40;;;4.05;;
68484;SDS011;55472;50.060;21.960;2023-07-16T02:22:33;7.03;;;4.25;;
68484;SDS011;55472;50.060;21.960;2023-07-16T02:25:01;6.13;;;4.10;;
68484;SDS011;55472;50.060;21.960;2023-07-16T02:27:27;6.17;;;3.93;;
68484;SDS011;55472;50.060;21.960;2023-07-16T02:29:54;7.65;;;4.25;;
68484;SDS011;55472;50.060;21.960;2023-07-16T02:32:20;6.03;;;3.90;;
68484;SDS011;55472;50.060;21.960;2023-07-16T02:34:47;7.80;;;4.20;;
68484;SDS011;55472;50.060;21.960;2023-07-16T02:37:13;7.93;;;4.50;;
68484;SDS011;55472;50.060;21.960;2023-07-16T02:39:41;6.13;;;3.95;;
68484;SDS011;55472;50.060;21.960;2023-07-16T02:42:10;5.47;;;3.67;;
68484;SDS011;55472;50.060;21.960;2023-07-16T02:44:36;6.10;;;3.88;;
68484;SDS011;55472;50.060;21.960;2023-07-16T02:47:07;6.03;;;3.67;;
68484;SDS011;55472;50.060;21.960;2023-07-16T02:49:33;6.70;;;4.00;;
68484;SDS011;55472;50.060;21.960;2023-07-16T02:51:59;7.13;;;4.10;;
68484;SDS011;55472;50.060;21.960;2023-07-16T02:54:25;8.48;;;4.30;;
68484;SDS011;55472;50.060;21.960;2023-07-16T02:56:52;8.57;;;3.90;;
68484;SDS011;55472;50.060;21.960;2023-07-16T02:59:18;6.63;;;3.70;;
68484;SDS011;55472;50.060;21.960;2023-07-16T03:01:44;6.87;;;3.97;;
68484;SDS011;55472;50.060;21.960;2023-07-16T03:04:11;6.28;;;3.88;;
68484;SDS011;55472;50.060;21.960;2023-07-16T03:06:37;10.07;;;4.00;;
68484;SDS011;55472;50.060;21.960;2023-07-16T03:09:03;6.47;;;3.95;;
68484;SDS011;55472;50.060;21.960;2023-07-16T03:11:29;5.78;;;3.50;;
68484;SDS011;55472;50.060;21.960;2023-07-16T03:13:55;7.70;;;4.00;;
68484;SDS011;55472;50.060;21.960;2023-07-16T03:16:21;5.40;;;3.65;;
68484;SDS011;55472;50.060;21.960;2023-07-16T03:18:48;6.68;;;3.75;;
68484;SDS011;55472;50.060;21.960;2023-07-16T03:21:14;7.60;;;4.00;;
68484;SDS011;55472;50.060;21.960;2023-07-16T03:23:40;6.93;;;3.83;;
68484;SDS011;55472;50.060;21.960;2023-07-16T03:26:06;9.53;;;3.90;;
68484;SDS011;55472;50.060;21.960;2023-07-16T03:28:32;6.63;;;3.80;;
68484;SDS011;55472;50.060;21.960;2023-07-16T03:30:58;5.47;;;3.47;;
68484;SDS011;55472;50.060;21.960;2023-07-16T03:33:25;6.80;;;3.78;;
68484;SDS011;55472;50.060;21.960;2023-07-16T03:35:51;6.67;;;3.87;;
68484;SDS011;55472;50.060;21.960;2023-07-16T03:38:17;6.10;;;3.97;;
68484;SDS011;55472;50.060;21.960;2023-07-16T03:40:45;7.15;;;3.63;;
68484;SDS011;55472;50.060;21.960;2023-07-16T03:43:14;7.15;;;3.83;;
68484;SDS011;55472;50.060;21.960;2023-07-16T03:45:41;6.05;;;3.72;;
68484;SDS011;55472;50.060;21.960;2023-07-16T03:48:08;8.40;;;3.90;;
68484;SDS011;55472;50.060;21.960;2023-07-16T03:50:34;5.77;;;3.70;;
68484;SDS011;55472;50.060;21.960;2023-07-16T03:53:01;5.90;;;3.85;;
68484;SDS011;55472;50.060;21.960;2023-07-16T03:55:28;6.85;;;3.85;;
68484;SDS011;55472;50.060;21.960;2023-07-16T03:57:55;6.25;;;3.78;;
68484;SDS011;55472;50.060;21.960;2023-07-16T04:00:21;6.13;;;3.95;;
68484;SDS011;55472;50.060;21.960;2023-07-16T04:02:48;6.07;;;3.70;;
68484;SDS011;55472;50.060;21.960;2023-07-16T04:05:14;5.70;;;3.80;;
68484;SDS011;55472;50.060;21.960;2023-07-16T04:07:40;5.88;;;3.88;;
68484;SDS011;55472;50.060;21.960;2023-07-16T04:10:06;6.38;;;3.85;;
68484;SDS011;55472;50.060;21.960;2023-07-16T04:12:33;6.78;;;3.70;;
68484;SDS011;55472;50.060;21.960;2023-07-16T04:14:59;8.10;;;3.63;;
68484;SDS011;55472;50.060;21.960;2023-07-16T04:17:25;6.38;;;3.63;;
68484;SDS011;55472;50.060;21.960;2023-07-16T04:19:51;6.10;;;3.75;;
68484;SDS011;55472;50.060;21.960;2023-07-16T04:22:18;6.05;;;3.75;;
68484;SDS011;55472;50.060;21.960;2023-07-16T04:24:44;6.93;;;3.95;;
68484;SDS011;55472;50.060;21.960;2023-07-16T04:27:10;5.47;;;3.50;;
68484;SDS011;55472;50.060;21.960;2023-07-16T04:29:36;6.50;;;3.47;;
68484;SDS011;55472;50.060;21.960;2023-07-16T04:32:02;6.95;;;3.67;;
68484;SDS011;55472;50.060;21.960;2023-07-16T04:34:29;6.32;;;3.75;;
68484;SDS011;55472;50.060;21.960;2023-07-16T04:36:55;7.30;;;4.00;;
68484;SDS011;55472;50.060;21.960;2023-07-16T04:39:21;6.43;;;3.40;;
68484;SDS011;55472;50.060;21.960;2023-07-16T04:41:47;7.13;;;3.72;;
68484;SDS011;55472;50.060;21.960;2023-07-16T04:44:13;5.32;;;3.83;;
68484;SDS011;55472;50.060;21.960;2023-07-16T04:46:40;6.65;;;3.60;;
68484;SDS011;55472;50.060;21.960;2023-07-16T04:49:05;5.50;;;3.70;;
68484;SDS011;55472;50.060;21.960;2023-07-16T04:51:32;6.93;;;3.70;;
68484;SDS011;55472;50.060;21.960;2023-07-16T04:53:58;6.35;;;3.70;;
68484;SDS011;55472;50.060;21.960;2023-07-16T04:56:24;6.65;;;3.33;;
68484;SDS011;55472;50.060;21.960;2023-07-16T04:58:50;6.05;;;4.05;;
68484;SDS011;55472;50.060;21.960;2023-07-16T05:01:16;9.27;;;3.37;;
68484;SDS011;55472;50.060;21.960;2023-07-16T05:03:42;5.68;;;3.60;;
68484;SDS011;55472;50.060;21.960;2023-07-16T05:06:09;6.38;;;3.50;;
68484;SDS011;55472;50.060;21.960;2023-07-16T05:08:35;5.80;;;3.63;;
68484;SDS011;55472;50.060;21.960;2023-07-16T05:11:01;6.32;;;3.38;;
68484;SDS011;55472;50.060;21.960;2023-07-16T05:13:28;7.63;;;3.73;;
68484;SDS011;55472;50.060;21.960;2023-07-16T05:15:54;6.32;;;3.88;;
68484;SDS011;55472;50.060;21.960;2023-07-16T05:18:20;7.03;;;3.92;;
68484;SDS011;55472;50.060;21.960;2023-07-16T05:20:48;7.55;;;3.83;;
68484;SDS011;55472;50.060;21.960;2023-07-16T05:23:14;5.78;;;3.10;;
68484;SDS011;55472;50.060;21.960;2023-07-16T05:25:47;6.00;;;3.67;;
68484;SDS011;55472;50.060;21.960;2023-07-16T05:28:15;5.68;;;3.22;;
68484;SDS011;55472;50.060;21.960;2023-07-16T05:30:42;8.35;;;3.60;;
68484;SDS011;55472;50.060;21.960;2023-07-16T05:33:09;7.43;;;3.60;;
68484;SDS011;55472;50.060;21.960;2023-07-16T05:35:36;6.32;;;3.40;;
68484;SDS011;55472;50.060;21.960;2023-07-16T05:38:04;5.43;;;3.60;;
68484;SDS011;55472;50.060;21.960;2023-07-16T05:40:30;5.50;;;3.70;;
68484;SDS011;55472;50.060;21.960;2023-07-16T05:42:56;5.35;;;3.55;;
68484;SDS011;55472;50.060;21.960;2023-07-16T05:45:22;5.68;;;3.38;;
68484;SDS011;55472;50.060;21.960;2023-07-16T05:47:48;6.00;;;3.53;;
68484;SDS011;55472;50.060;21.960;2023-07-16T05:50:15;5.28;;;3.50;;
68484;SDS011;55472;50.060;21.960;2023-07-16T05:52:41;4.97;;;3.33;;
68484;SDS011;55472;50.060;21.960;2023-07-16T05:55:08;5.55;;;3.17;;
68484;SDS011;55472;50.060;21.960;2023-07-16T05:57:34;7.05;;;3.55;;
68484;SDS011;55472;50.060;21.960;2023-07-16T06:00:00;6.43;;;3.10;;
68484;SDS011;55472;50.060;21.960;2023-07-16T06:02:26;5.10;;;3.10;;
68484;SDS011;55472;50.060;21.960;2023-07-16T06:04:52;4.50;;;2.88;;
68484;SDS011;55472;50.060;21.960;2023-07-16T06:07:18;5.45;;;3.03;;
68484;SDS011;55472;50.060;21.960;2023-07-16T06:09:44;4.38;;;2.78;;
68484;SDS011;55472;50.060;21.960;2023-07-16T06:12:10;5.00;;;2.70;;
68484;SDS011;55472;50.060;21.960;2023-07-16T06:14:36;4.53;;;2.70;;
68484;SDS011;55472;50.060;21.960;2023-07-16T06:17:03;5.45;;;2.47;;
68484;SDS011;55472;50.060;21.960;2023-07-16T06:19:29;4.78;;;2.63;;
68484;SDS011;55472;50.060;21.960;2023-07-16T06:21:55;5.65;;;3.33;;
68484;SDS011;55472;50.060;21.960;2023-07-16T06:24:22;4.70;;;2.73;;
68484;SDS011;55472;50.060;21.960;2023-07-16T06:26:48;7.20;;;2.85;;
68484;SDS011;55472;50.060;21.960;2023-07-16T06:29:14;4.63;;;2.75;;
68484;SDS011;55472;50.060;21.960;2023-07-16T06:31:42;5.22;;;2.65;;
68484;SDS011;55472;50.060;21.960;2023-07-16T06:34:10;4.70;;;2.73;;
68484;SDS011;55472;50.060;21.960;2023-07-16T06:36:38;5.53;;;2.65;;
68484;SDS011;55472;50.060;21.960;2023-07-16T06:39:04;3.97;;;2.65;;
68484;SDS011;55472;50.060;21.960;2023-07-16T06:41:30;6.97;;;2.60;;
68484;SDS011;55472;50.060;21.960;2023-07-16T06:43:57;7.13;;;2.85;;
68484;SDS011;55472;50.060;21.960;2023-07-16T06:46:23;5.43;;;2.70;;
68484;SDS011;55472;50.060;21.960;2023-07-16T06:48:49;6.40;;;2.58;;
68484;SDS011;55472;50.060;21.960;2023-07-16T06:51:16;5.00;;;2.72;;
68484;SDS011;55472;50.060;21.960;2023-07-16T06:53:42;4.72;;;2.92;;
68484;SDS011;55472;50.060;21.960;2023-07-16T06:56:08;4.47;;;2.80;;
68484;SDS011;55472;50.060;21.960;2023-07-16T06:58:34;5.07;;;2.85;;
68484;SDS011;55472;50.060;21.960;2023-07-16T07:01:00;4.50;;;2.53;;
68484;SDS011;55472;50.060;21.960;2023-07-16T07:03:27;4.60;;;2.70;;
68484;SDS011;55472;50.060;21.960;2023-07-16T07:05:53;6.45;;;2.88;;
68484;SDS011;55472;50.060;21.960;2023-07-16T07:08:19;6.43;;;2.70;;
68484;SDS011;55472;50.060;21.960;2023-07-16T07:10:46;8.18;;;2.70;;
68484;SDS011;55472;50.060;21.960;2023-07-16T07:13:15;4.45;;;2.70;;
68484;SDS011;55472;50.060;21.960;2023-07-16T07:15:41;7.35;;;2.75;;
68484;SDS011;55472;50.060;21.960;2023-07-16T07:18:07;5.18;;;2.83;;
68484;SDS011;55472;50.060;21.960;2023-07-16T07:20:33;7.00;;;2.53;;
68484;SDS011;55472;50.060;21.960;2023-07-16T07:23:00;5.10;;;3.10;;
68484;SDS011;55472;50.060;21.960;2023-07-16T07:25:28;5.10;;;2.80;;
68484;SDS011;55472;50.060;21.960;2023-07-16T07:27:54;5.97;;;2.90;;
68484;SDS011;55472;50.060;21.960;2023-07-16T07:30:20;5.47;;;2.65;;
68484;SDS011;55472;50.060;21.960;2023-07-16T07:32:47;6.70;;;2.93;;
68484;SDS011;55472;50.060;21.960;2023-07-16T07:35:13;5.80;;;2.58;;
68484;SDS011;55472;50.060;21.960;2023-07-16T07:37:40;7.60;;;2.70;;
68484;SDS011;55472;50.060;21.960;2023-07-16T07:40:06;5.28;;;2.65;;
68484;SDS011;55472;50.060;21.960;2023-07-16T07:42:33;4.63;;;2.70;;
68484;SDS011;55472;50.060;21.960;2023-07-16T07:44:59;7.57;;;2.80;;
68484;SDS011;55472;50.060;21.960;2023-07-16T07:47:26;5.10;;;2.65;;
68484;SDS011;55472;50.060;21.960;2023-07-16T07:49:52;6.10;;;2.70;;
68484;SDS011;55472;50.060;21.960;2023-07-16T07:52:18;5.35;;;2.80;;
68484;SDS011;55472;50.060;21.960;2023-07-16T07:54:44;5.65;;;2.65;;
68484;SDS011;55472;50.060;21.960;2023-07-16T07:57:11;6.50;;;2.80;;
68484;SDS011;55472;50.060;21.960;2023-07-16T07:59:37;4.72;;;2.95;;
68484;SDS011;55472;50.060;21.960;2023-07-16T08:02:03;5.55;;;2.70;;
68484;SDS011;55472;50.060;21.960;2023-07-16T08:04:29;3.88;;;2.35;;
68484;SDS011;55472;50.060;21.960;2023-07-16T08:06:59;6.20;;;2.50;;
68484;SDS011;55472;50.060;21.960;2023-07-16T08:09:28;4.77;;;2.57;;
68484;SDS011;55472;50.060;21.960;2023-07-16T08:11:54;6.78;;;2.65;;
68484;SDS011;55472;50.060;21.960;2023-07-16T08:14:20;6.25;;;2.60;;
68484;SDS011;55472;50.060;21.960;2023-07-16T08:16:46;6.70;;;2.35;;
68484;SDS011;55472;50.060;21.960;2023-07-16T08:19:12;4.97;;;2.55;;
68484;SDS011;55472;50.060;21.960;2023-07-16T08:21:39;4.17;;;2.50;;
68484;SDS011;55472;50.060;21.960;2023-07-16T08:24:05;6.18;;;2.55;;
68484;SDS011;55472;50.060;21.960;2023-07-16T08:26:32;4.68;;;2.45;;
68484;SDS011;55472;50.060;21.960;2023-07-16T08:28:58;7.65;;;2.60;;
68484;SDS011;55472;50.060;21.960;2023-07-16T08:31:26;5.40;;;2.50;;
68484;SDS011;55472;50.060;21.960;2023-07-16T08:33:53;5.68;;;2.35;;
68484;SDS011;55472;50.060;21.960;2023-07-16T08:36:19;5.15;;;2.35;;
68484;SDS011;55472;50.060;21.960;2023-07-16T08:38:45;5.00;;;2.20;;
68484;SDS011;55472;50.060;21.960;2023-07-16T08:41:11;7.10;;;2.40;;
68484;SDS011;55472;50.060;21.960;2023-07-16T08:43:37;4.80;;;2.73;;
68484;SDS011;55472;50.060;21.960;2023-07-16T08:46:05;5.72;;;2.40;;
68484;SDS011;55472;50.060;21.960;2023-07-16T08:48:32;11.27;;;2.40;;
68484;SDS011;55472;50.060;21.960;2023-07-16T08:50:58;7.03;;;2.40;;
68484;SDS011;55472;50.060;21.960;2023-07-16T08:53:27;4.03;;;2.63;;
68484;SDS011;55472;50.060;21.960;2023-07-16T08:55:55;4.53;;;2.57;;
68484;SDS011;55472;50.060;21.960;2023-07-16T08:58:23;6.18;;;2.65;;
68484;SDS011;55472;50.060;21.960;2023-07-16T09:00:50;8.68;;;2.90;;
68484;SDS011;55472;50.060;21.960;2023-07-16T09:03:18;4.82;;;2.70;;
68484;SDS011;55472;50.060;21.960;2023-07-16T09:05:44;7.75;;;2.95;;
68484;SDS011;55472;50.060;21.960;2023-07-16T09:08:11;5.10;;;2.73;;
68484;SDS011;55472;50.060;21.960;2023-07-16T09:10:41;7.60;;;2.45;;
68484;SDS011;55472;50.060;21.960;2023-07-16T09:13:07;5.53;;;2.70;;
68484;SDS011;55472;50.060;21.960;2023-07-16T09:15:34;4.90;;;2.55;;
68484;SDS011;55472;50.060;21.960;2023-07-16T09:18:01;4.35;;;2.60;;
68484;SDS011;55472;50.060;21.960;2023-07-16T09:20:28;4.53;;;2.60;;
68484;SDS011;55472;50.060;21.960;2023-07-16T09:22:56;5.70;;;2.72;;
68484;SDS011;55472;50.060;21.960;2023-07-16T09:25:29;4.45;;;2.75;;
68484;SDS011;55472;50.060;21.960;2023-07-16T09:27:57;6.75;;;2.85;;
68484;SDS011;55472;50.060;21.960;2023-07-16T09:30:30;5.45;;;2.45;;
68484;SDS011;55472;50.060;21.960;2023-07-16T09:32:58;5.00;;;2.90;;
68484;SDS011;55472;50.060;21.960;2023-07-16T09:35:40;5.25;;;3.08;;
68484;SDS011;55472;50.060;21.960;2023-07-16T09:38:07;6.75;;;2.70;;
68484;SDS011;55472;50.060;21.960;2023-07-16T09:40:38;4.82;;;2.58;;
68484;SDS011;55472;50.060;21.960;2023-07-16T09:43:08;4.80;;;2.65;;
68484;SDS011;55472;50.060;21.960;2023-07-16T09:45:36;7.70;;;2.80;;
68484;SDS011;55472;50.060;21.960;2023-07-16T09:48:03;8.95;;;2.50;;
68484;SDS011;55472;50.060;21.960;2023-07-16T09:50:31;7.43;;;2.60;;
68484;SDS011;55472;50.060;21.960;2023-07-16T09:52:59;4.30;;;2.90;;
68484;SDS011;55472;50.060;21.960;2023-07-16T09:55:28;5.45;;;2.90;;
68484;SDS011;55472;50.060;21.960;2023-07-16T09:58:03;4.93;;;2.70;;
68484;SDS011;55472;50.060;21.960;2023-07-16T10:00:34;5.00;;;2.80;;
68484;SDS011;55472;50.060;21.960;2023-07-16T10:03:01;6.78;;;3.10;;
68484;SDS011;55472;50.060;21.960;2023-07-16T10:05:28;6.07;;;3.05;;
68484;SDS011;55472;50.060;21.960;2023-07-16T10:07:55;4.50;;;3.08;;
68484;SDS011;55472;50.060;21.960;2023-07-16T10:13:13;7.47;;;3.20;;
68484;SDS011;55472;50.060;21.960;2023-07-16T10:15:50;5.13;;;2.88;;
68484;SDS011;55472;50.060;21.960;2023-07-16T10:18:29;5.05;;;3.08;;
68484;SDS011;55472;50.060;21.960;2023-07-16T10:21:04;7.45;;;3.30;;
68484;SDS011;55472;50.060;21.960;2023-07-16T10:23:41;5.60;;;2.80;;
68484;SDS011;55472;50.060;21.960;2023-07-16T10:26:10;6.10;;;3.00;;
68484;SDS011;55472;50.060;21.960;2023-07-16T10:28:40;5.93;;;3.05;;
68484;SDS011;55472;50.060;21.960;2023-07-16T10:31:16;5.05;;;3.17;;
68484;SDS011;55472;50.060;21.960;2023-07-16T10:33:55;4.80;;;3.38;;
68484;SDS011;55472;50.060;21.960;2023-07-16T10:36:36;5.90;;;2.90;;
68484;SDS011;55472;50.060;21.960;2023-07-16T10:39:04;8.35;;;3.20;;
68484;SDS011;55472;50.060;21.960;2023-07-16T10:41:30;5.63;;;3.00;;
68484;SDS011;55472;50.060;21.960;2023-07-16T10:44:00;5.95;;;3.42;;
68484;SDS011;55472;50.060;21.960;2023-07-16T10:46:27;4.03;;;2.97;;
68484;SDS011;55472;50.060;21.960;2023-07-16T10:48:53;5.10;;;2.90;;
68484;SDS011;55472;50.060;21.960;2023-07-16T10:51:24;3.92;;;2.97;;
68484;SDS011;55472;50.060;21.960;2023-07-16T10:53:51;6.38;;;3.08;;
68484;SDS011;55472;50.060;21.960;2023-07-16T10:56:22;4.55;;;3.20;;
68484;SDS011;55472;50.060;21.960;2023-07-16T10:58:48;6.10;;;3.10;;
68484;SDS011;55472;50.060;21.960;2023-07-16T11:01:15;4.93;;;3.50;;
68484;SDS011;55472;50.060;21.960;2023-07-16T11:03:41;5.93;;;3.17;;
68484;SDS011;55472;50.060;21.960;2023-07-16T11:06:08;5.90;;;2.92;;
68484;SDS011;55472;50.060;21.960;2023-07-16T11:08:37;5.22;;;3.30;;
68484;SDS011;55472;50.060;21.960;2023-07-16T11:11:03;5.47;;;3.00;;
68484;SDS011;55472;50.060;21.960;2023-07-16T11:13:32;4.10;;;3.00;;
68484;SDS011;55472;50.060;21.960;2023-07-16T11:16:09;7.22;;;3.30;;
68484;SDS011;55472;50.060;21.960;2023-07-16T11:18:36;5.00;;;3.30;;
68484;SDS011;55472;50.060;21.960;2023-07-16T11:21:03;4.90;;;3.10;;
68484;SDS011;55472;50.060;21.960;2023-07-16T11:23:29;4.80;;;3.25;;
68484;SDS011;55472;50.060;21.960;2023-07-16T11:26:01;5.93;;;3.10;;
68484;SDS011;55472;50.060;21.960;2023-07-16T11:28:41;4.28;;;2.88;;
68484;SDS011;55472;50.060;21.960;2023-07-16T11:31:15;5.35;;;3.20;;
68484;SDS011;55472;50.060;21.960;2023-07-16T11:33:45;6.25;;;3.08;;
68484;SDS011;55472;50.060;21.960;2023-07-16T11:36:12;6.40;;;3.20;;
68484;SDS011;55472;50.060;21.960;2023-07-16T11:38:38;5.33;;;2.90;;
68484;SDS011;55472;50.060;21.960;2023-07-16T11:41:05;6.07;;;3.10;;
68484;SDS011;55472;50.060;21.960;2023-07-16T11:43:34;5.82;;;3.20;;
68484;SDS011;55472;50.060;21.960;2023-07-16T11:46:02;4.65;;;3.33;;
68484;SDS011;55472;50.060;21.960;2023-07-16T11:48:30;4.07;;;2.97;;
68484;SDS011;55472;50.060;21.960;2023-07-16T11:50:56;5.80;;;3.60;;
68484;SDS011;55472;50.060;21.960;2023-07-16T11:53:22;5.53;;;3.38;;
68484;SDS011;55472;50.060;21.960;2023-07-16T11:55:49;6.55;;;2.92;;
68484;SDS011;55472;50.060;21.960;2023-07-16T11:58:15;4.63;;;2.65;;
68484;SDS011;55472;50.060;21.960;2023-07-16T12:00:41;6.85;;;3.45;;
68484;SDS011;55472;50.060;21.960;2023-07-16T12:03:07;4.43;;;3.10;;
68484;SDS011;55472;50.060;21.960;2023-07-16T12:05:33;8.38;;;3.92;;
68484;SDS011;55472;50.060;21.960;2023-07-16T12:07:59;5.38;;;3.30;;
68484;SDS011;55472;50.060;21.960;2023-07-16T12:10:25;5.88;;;3.25;;
68484;SDS011;55472;50.060;21.960;2023-07-16T12:12:51;7.40;;;3.17;;
68484;SDS011;55472;50.060;21.960;2023-07-16T12:15:18;4.60;;;3.07;;
68484;SDS011;55472;50.060;21.960;2023-07-16T12:17:44;5.07;;;3.47;;
68484;SDS011;55472;50.060;21.960;2023-07-16T12:20:10;6.10;;;3.30;;
68484;SDS011;55472;50.060;21.960;2023-07-16T12:22:36;6.28;;;3.30;;
68484;SDS011;55472;50.060;21.960;2023-07-16T12:25:03;5.25;;;3.20;;
68484;SDS011;55472;50.060;21.960;2023-07-16T12:27:29;5.53;;;3.37;;
68484;SDS011;55472;50.060;21.960;2023-07-16T12:29:55;4.68;;;3.15;;
68484;SDS011;55472;50.060;21.960;2023-07-16T12:32:21;4.93;;;3.20;;
68484;SDS011;55472;50.060;21.960;2023-07-16T12:34:48;4.30;;;3.28;;
68484;SDS011;55472;50.060;21.960;2023-07-16T12:37:14;5.40;;;3.20;;
68484;SDS011;55472;50.060;21.960;2023-07-16T12:39:42;5.03;;;3.60;;
68484;SDS011;55472;50.060;21.960;2023-07-16T12:42:08;5.50;;;3.70;;
68484;SDS011;55472;50.060;21.960;2023-07-16T12:44:35;6.70;;;3.40;;
68484;SDS011;55472;50.060;21.960;2023-07-16T12:47:00;5.25;;;3.60;;
68484;SDS011;55472;50.060;21.960;2023-07-16T12:49:27;4.57;;;3.20;;
68484;SDS011;55472;50.060;21.960;2023-07-16T12:51:53;5.97;;;3.70;;
68484;SDS011;55472;50.060;21.960;2023-07-16T12:54:20;5.80;;;3.50;;
68484;SDS011;55472;50.060;21.960;2023-07-16T12:56:46;7.10;;;3.60;;
68484;SDS011;55472;50.060;21.960;2023-07-16T12:59:12;4.75;;;3.58;;
68484;SDS011;55472;50.060;21.960;2023-07-16T13:01:38;7.37;;;3.50;;
68484;SDS011;55472;50.060;21.960;2023-07-16T13:04:04;5.23;;;3.47;;
68484;SDS011;55472;50.060;21.960;2023-07-16T13:06:30;5.90;;;3.65;;
68484;SDS011;55472;50.060;21.960;2023-07-16T13:08:56;4.90;;;3.25;;
68484;SDS011;55472;50.060;21.960;2023-07-16T13:11:23;5.38;;;3.60;;
68484;SDS011;55472;50.060;21.960;2023-07-16T13:13:51;7.60;;;3.60;;
68484;SDS011;55472;50.060;21.960;2023-07-16T13:16:18;4.90;;;3.33;;
68484;SDS011;55472;50.060;21.960;2023-07-16T13:18:44;7.43;;;3.50;;
68484;SDS011;55472;50.060;21.960;2023-07-16T13:21:10;5.07;;;3.63;;
68484;SDS011;55472;50.060;21.960;2023-07-16T13:23:36;5.63;;;3.38;;
68484;SDS011;55472;50.060;21.960;2023-07-16T13:26:03;8.13;;;3.50;;
68484;SDS011;55472;50.060;21.960;2023-07-16T13:28:29;9.15;;;3.88;;
68484;SDS011;55472;50.060;21.960;2023-07-16T13:30:55;8.00;;;3.72;;
68484;SDS011;55472;50.060;21.960;2023-07-16T13:33:21;5.57;;;3.53;;
68484;SDS011;55472;50.060;21.960;2023-07-16T13:35:48;6.28;;;3.50;;
68484;SDS011;55472;50.060;21.960;2023-07-16T13:38:14;7.63;;;3.70;;
68484;SDS011;55472;50.060;21.960;2023-07-16T13:40:40;5.90;;;3.33;;
68484;SDS011;55472;50.060;21.960;2023-07-16T13:43:06;5.00;;;3.55;;
68484;SDS011;55472;50.060;21.960;2023-07-16T13:45:33;8.18;;;3.38;;
68484;SDS011;55472;50.060;21.960;2023-07-16T13:47:59;4.70;;;3.30;;
68484;SDS011;55472;50.060;21.960;2023-07-16T13:50:25;6.67;;;3.33;;
68484;SDS011;55472;50.060;21.960;2023-07-16T13:52:52;6.10;;;3.65;;
68484;SDS011;55472;50.060;21.960;2023-07-16T13:55:18;5.07;;;3.70;;
68484;SDS011;55472;50.060;21.960;2023-07-16T13:57:44;7.40;;;3.47;;
68484;SDS011;55472;50.060;21.960;2023-07-16T14:00:11;6.45;;;3.38;;
68484;SDS011;55472;50.060;21.960;2023-07-16T14:02:38;6.03;;;3.47;;
68484;SDS011;55472;50.060;21.960;2023-07-16T14:05:04;6.25;;;3.50;;
68484;SDS011;55472;50.060;21.960;2023-07-16T14:07:31;8.55;;;3.53;;
68484;SDS011;55472;50.060;21.960;2023-07-16T14:09:57;4.80;;;3.33;;
68484;SDS011;55472;50.060;21.960;2023-07-16T14:12:23;9.23;;;3.30;;
68484;SDS011;55472;50.060;21.960;2023-07-16T14:14:50;5.33;;;3.40;;
68484;SDS011;55472;50.060;21.960;2023-07-16T14:17:16;5.10;;;3.60;;
68484;SDS011;55472;50.060;21.960;2023-07-16T14:19:42;6.25;;;3.63;;
68484;SDS011;55472;50.060;21.960;2023-07-16T14:22:08;5.22;;;3.42;;
68484;SDS011;55472;50.060;21.960;2023-07-16T14:24:38;11.82;;;5.15;;
68484;SDS011;55472;50.060;21.960;2023-07-16T14:27:05;9.37;;;4.40;;
68484;SDS011;55472;50.060;21.960;2023-07-16T14:29:33;5.45;;;3.90;;
68484;SDS011;55472;50.060;21.960;2023-07-16T14:32:00;5.35;;;3.58;;
68484;SDS011;55472;50.060;21.960;2023-07-16T14:34:27;7.80;;;3.55;;
68484;SDS011;55472;50.060;21.960;2023-07-16T14:36:53;5.43;;;3.72;;
68484;SDS011;55472;50.060;21.960;2023-07-16T14:39:19;6.90;;;3.57;;
68484;SDS011;55472;50.060;21.960;2023-07-16T14:41:46;6.82;;;3.50;;